Azusa, California
Current Conditions -  °F | °C
As of 8:47 PM on Wednesday 22 Oct 2014 (Local Time) from KPOC Reporting Station
Clear Clear  
Wind Chill: 68°   Ceiling: Unl
Heat Index: 68°   Visibility: 10mi
Dew Point: 54°   Wind: 3mph
Humidity: 60%   Direction: 270°W
Pressure: 29.99"   Gusts: NA
Location:  34.13°N, 117.9°W
Report Text: KPOC 230347Z 27003KT 10SM CLR 20/12 A2999
Loading
Personal Weather Stations






























Interactive Weather Map
Tropical Storm Tracking
New forecast layout! Learn more

10-Day Weather Forecast

Advertisements
Track Severe Weather on mobile